Alpine, California
Current Conditions -  °F | °C
As of 10:47 AM on Thursday 30 Oct 2014 (Local Time) from KSEE Reporting Station
Broken Clouds Broken Clouds  
Wind Chill: 70°   Ceiling: 20000
Heat Index: 70°   Visibility: 25mi
Dew Point: 46°   Wind: 0mph
Humidity: 43%   Direction: NA
Pressure: 30.01"   Gusts: NA
Location:  32.83°N, 116.75°W
Report Text: KSEE 301747Z 00000KT 25SM BKN200 21/08 A3001
Loading
Personal Weather Stations






























Interactive Weather Map
Tropical Storm Tracking
New forecast layout! Learn more

10-Day Weather Forecast

Advertisements
Track Severe Weather on mobile